Time;durP1;ratioP1;P1;durP2;ratioP2;P2;SDS_P1;SDS_P2;PMS_P1;PMS_P2;Temp;Humidity;BMP_temperature;BMP_pressure;BME280_temperature;BME280_humidity;BME280_pressure;Samples;Min_cycle;Max_cycle;Signal;HPM_P1;HPM_P2
2022/01/05 00:00:07;;;;;;;14.17;9.03;;;;;;;0.36;86.17;98909.97;5077178;28;20267;-55
2022/01/05 00:02:33;;;;;;;14.65;9.20;;;;;;;0.32;86.07;98912.03;5078853;28;20082;-56
2022/01/05 00:04:58;;;;;;;18.10;9.90;;;;;;;0.10;86.16;98879.16;5077053;28;20032;-55
2022/01/05 00:07:24;;;;;;;11.30;7.83;;;;;;;0.39;86.37;98910.50;5078183;28;20127;-51
2022/01/05 00:09:51;;;;;;;13.47;9.43;;;;;;;0.36;86.36;98899.50;5077816;28;20089;-57
2022/01/05 00:12:16;;;;;;;12.43;7.20;;;;;;;0.37;86.19;98898.53;5078158;28;20254;-60
2022/01/05 00:14:41;;;;;;;10.73;6.97;;;;;;;0.39;86.30;98909.66;5076904;28;20039;-57
2022/01/05 00:17:07;;;;;;;8.63;6.23;;;;;;;0.33;85.98;98897.16;5078797;28;20175;-59
2022/01/05 00:19:34;;;;;;;11.67;8.30;;;;;;;0.37;86.46;98903.75;5078187;28;20086;-56
2022/01/05 00:22:01;;;;;;;15.13;9.30;;;;;;;0.40;85.97;98903.47;5078173;28;20040;-58
2022/01/05 00:24:27;;;;;;;10.03;6.90;;;;;;;0.51;86.01;98908.50;5078016;28;20306;-56
2022/01/05 00:26:52;;;;;;;16.90;9.70;;;;;;;0.48;86.04;98899.16;5077995;28;20289;-56
2022/01/05 00:29:18;;;;;;;11.17;8.03;;;;;;;0.37;85.79;98880.19;5077980;28;20448;-57
2022/01/05 00:31:44;;;;;;;13.63;8.23;;;;;;;0.49;86.04;98894.75;5078508;28;20423;-57
2022/01/05 00:34:09;;;;;;;10.53;7.27;;;;;;;0.52;85.83;98894.44;5078035;28;20067;-57
2022/01/05 00:36:35;;;;;;;11.90;7.03;;;;;;;0.51;86.03;98888.38;5077951;28;20119;-59
2022/01/05 00:39:00;;;;;;;14.43;8.67;;;;;;;0.40;85.73;98872.88;5077804;28;20042;-53
2022/01/05 00:41:26;;;;;;;11.87;8.97;;;;;;;0.49;85.98;98876.41;5077848;28;20047;-57
2022/01/05 00:43:51;;;;;;;16.73;9.00;;;;;;;0.48;85.77;98875.59;5078053;28;20039;-56
2022/01/05 00:46:18;;;;;;;11.10;7.83;;;;;;;0.49;86.14;98871.16;5077762;28;20093;-56
2022/01/05 00:48:46;;;;;;;11.83;7.50;;;;;;;0.56;85.81;98874.84;5078695;28;20123;-56
2022/01/05 00:51:13;;;;;;;11.43;7.67;;;;;;;0.60;85.63;98873.63;5077764;28;20385;-57
2022/01/05 00:53:39;;;;;;;10.23;6.70;;;;;;;0.65;85.85;98881.03;5077738;28;20541;-55
2022/01/05 00:56:04;;;;;;;9.50;6.80;;;;;;;0.63;85.59;98875.94;5077945;28;20267;-54
2022/01/05 00:58:30;;;;;;;10.67;6.93;;;;;;;0.66;85.72;98866.97;5078292;28;20439;-61
2022/01/05 01:00:56;;;;;;;6.90;6.17;;;;;;;0.69;85.57;98880.59;5077591;28;20040;-57
2022/01/05 01:03:22;;;;;;;15.90;8.00;;;;;;;0.63;85.55;98872.50;5076305;28;20119;-58
2022/01/05 01:05:48;;;;;;;9.63;6.57;;;;;;;0.58;85.68;98875.56;5074661;28;20354;-62
2022/01/05 01:08:13;;;;;;;10.53;6.13;;;;;;;0.46;86.21;98860.97;5074613;28;20657;-57
2022/01/05 01:10:40;;;;;;;10.53;8.13;;;;;;;0.57;86.00;98868.63;5074261;28;20056;-57
2022/01/05 01:13:05;;;;;;;11.53;8.17;;;;;;;0.57;86.10;98873.88;5074457;28;20741;-52
2022/01/05 01:15:31;;;;;;;12.90;8.17;;;;;;;0.53;86.22;98872.53;5074394;28;20472;-58
2022/01/05 01:17:56;;;;;;;10.53;7.40;;;;;;;0.51;86.40;98872.66;5073815;28;20174;-58
2022/01/05 01:20:22;;;;;;;11.03;6.83;;;;;;;0.43;86.16;98858.66;5073048;28;20036;-57
2022/01/05 01:22:49;;;;;;;9.50;6.97;;;;;;;0.47;86.18;98857.41;5073944;28;20115;-57
2022/01/05 01:25:15;;;;;;;10.47;6.70;;;;;;;0.53;86.29;98862.03;5074130;28;20040;-54
2022/01/05 01:27:42;;;;;;;11.00;7.20;;;;;;;0.53;86.42;98867.28;5074419;28;20416;-58
2022/01/05 01:30:10;;;;;;;11.63;7.50;;;;;;;0.46;86.37;98860.97;5074170;28;20044;-57
2022/01/05 01:32:36;;;;;;;14.20;7.63;;;;;;;0.49;86.38;98865.94;5074693;28;20278;-57
2022/01/05 01:35:05;;;;;;;11.37;7.40;;;;;;;0.00;86.48;98778.94;5072777;28;20311;-53
2022/01/05 01:37:31;;;;;;;10.23;7.33;;;;;;;0.50;86.47;98870.19;5074258;28;20335;-59
2022/01/05 01:39:57;;;;;;;12.33;8.00;;;;;;;0.36;86.72;98836.66;5074199;28;20763;-59
2022/01/05 01:42:22;;;;;;;13.80;7.93;;;;;;;0.42;86.46;98844.75;5072957;28;20029;-60
2022/01/05 01:44:48;;;;;;;12.57;7.90;;;;;;;0.48;86.81;98865.09;5073929;28;20131;-55
2022/01/05 01:47:13;;;;;;;11.00;8.80;;;;;;;0.42;86.67;98847.34;5074599;28;20139;-59
2022/01/05 01:49:39;;;;;;;12.57;9.00;;;;;;;0.23;86.90;98826.47;5073628;28;20048;-54
2022/01/05 01:52:05;;;;;;;11.97;8.67;;;;;;;0.39;86.81;98852.06;5073858;28;20047;-56
2022/01/05 01:54:31;;;;;;;11.37;8.60;;;;;;;0.43;86.60;98848.19;5073773;28;20067;-57
2022/01/05 01:56:59;;;;;;;11.37;8.20;;;;;;;0.41;86.89;98847.50;5073580;28;20295;-60
2022/01/05 01:59:26;;;;;;;12.80;9.52;;;;;;;0.36;87.17;98834.03;5073789;28;20139;-53
2022/01/05 02:01:52;;;;;;;11.93;9.43;;;;;;;0.44;87.01;98849.81;5074764;28;20553;-59
2022/01/05 02:04:17;;;;;;;13.70;9.70;;;;;;;0.41;86.89;98845.72;5074043;28;20259;-54
2022/01/05 02:06:43;;;;;;;16.73;11.27;;;;;;;0.38;87.10;98838.16;5073391;28;20036;-57
2022/01/05 02:09:08;;;;;;;16.57;11.70;;;;;;;0.40;86.96;98840.63;5073622;28;20032;-59
2022/01/05 02:11:39;;;;;;;14.77;10.23;;;;;;;0.44;86.79;98841.97;5073421;28;20137;-59
2022/01/05 02:14:05;;;;;;;13.70;10.93;;;;;;;0.42;87.20;98847.34;5073389;28;20036;-58
2022/01/05 02:16:32;;;;;;;14.97;9.13;;;;;;;0.45;86.83;98844.44;5072836;28;20266;-60
2022/01/05 02:18:59;;;;;;;13.57;10.20;;;;;;;0.38;87.11;98832.91;5073737;28;20277;-59
2022/01/05 02:21:37;;;;;;;12.80;9.67;;;;;;;0.43;86.74;98833.28;5073369;28;20312;-53
2022/01/05 02:24:05;;;;;;;15.52;9.70;;;;;;;0.48;87.33;98843.31;5073356;28;20259;-56
2022/01/05 02:26:30;;;;;;;14.20;9.93;;;;;;;0.45;87.39;98833.97;5073156;28;20078;-58
2022/01/05 02:28:56;;;;;;;16.17;9.50;;;;;;;0.48;86.88;98848.56;5072882;28;20325;-60
2022/01/05 02:31:22;;;;;;;12.77;9.13;;;;;;;0.29;86.68;98808.44;5072923;28;20040;-59
2022/01/05 02:33:48;;;;;;;10.83;9.17;;;;;;;0.43;86.85;98829.84;5073434;28;20032;-61
2022/01/05 02:36:17;;;;;;;11.37;8.40;;;;;;;0.47;87.09;98839.06;5072864;28;20032;-56
2022/01/05 02:38:43;;;;;;;12.30;8.03;;;;;;;0.41;86.88;98813.47;5072897;28;20377;-58
2022/01/05 02:41:10;;;;;;;11.87;8.27;;;;;;;0.59;87.04;98840.53;5072825;28;20273;-56
2022/01/05 02:43:38;;;;;;;10.17;7.30;;;;;;;0.61;86.69;98835.97;5072638;28;20456;-58
2022/01/05 02:46:04;;;;;;;9.17;6.60;;;;;;;0.59;86.82;98830.06;5072811;28;20312;-55
2022/01/05 02:48:32;;;;;;;13.10;8.43;;;;;;;0.67;86.43;98838.00;5073043;28;20697;-59
2022/01/05 02:50:59;;;;;;;10.43;8.07;;;;;;;0.30;86.59;98783.88;5072641;28;20359;-57
2022/01/05 02:53:25;;;;;;;10.87;7.30;;;;;;;0.59;86.51;98830.06;5072730;28;20036;-54
2022/01/05 02:55:53;;;;;;;11.43;7.80;;;;;;;0.67;86.57;98839.78;5071094;28;20823;-59
2022/01/05 02:58:19;;;;;;;7.75;6.55;;;;;;;0.67;86.70;98824.91;5072301;28;20035;-57
2022/01/05 03:00:45;;;;;;;9.93;7.23;;;;;;;0.77;86.51;98835.31;5071048;28;20123;-55
2022/01/05 03:03:11;;;;;;;9.93;7.17;;;;;;;0.78;86.67;98829.91;5071408;28;20032;-60
2022/01/05 03:05:36;;;;;;;9.77;7.27;;;;;;;0.75;86.16;98832.00;5072514;28;20416;-59
2022/01/05 03:08:02;;;;;;;9.00;6.43;;;;;;;0.59;85.94;98801.25;5072364;28;20051;-57
2022/01/05 03:10:28;;;;;;;9.13;6.73;;;;;;;0.63;85.84;98804.38;5071008;28;20040;-58
2022/01/05 03:12:54;;;;;;;9.90;5.87;;;;;;;0.69;85.72;98833.44;5072037;28;20344;-58
2022/01/05 03:15:19;;;;;;;9.47;7.03;;;;;;;0.64;85.98;98829.63;5071911;28;20761;-56
2022/01/05 03:17:45;;;;;;;8.80;6.33;;;;;;;0.64;86.33;98827.81;5072369;28;20033;-57
2022/01/05 03:20:12;;;;;;;8.67;5.43;;;;;;;0.66;86.12;98823.25;5072425;28;20033;-59
2022/01/05 03:22:39;;;;;;;10.07;6.87;;;;;;;0.60;86.36;98816.00;5070984;28;20462;-57
2022/01/05 03:25:05;;;;;;;9.57;7.30;;;;;;;0.61;86.20;98822.88;5072149;28;20250;-60
2022/01/05 03:27:31;;;;;;;10.27;8.20;;;;;;;0.64;86.17;98829.63;5071445;28;20259;-59
2022/01/05 03:29:56;;;;;;;9.73;8.00;;;;;;;0.58;86.16;98823.16;5071586;28;20313;-60
2022/01/05 03:32:23;;;;;;;9.13;6.87;;;;;;;0.52;86.36;98814.06;5072711;28;20047;-60
2022/01/05 03:34:51;;;;;;;10.30;7.47;;;;;;;0.58;86.21;98818.75;5072159;28;20067;-58
2022/01/05 03:37:16;;;;;;;8.60;7.10;;;;;;;0.64;86.43;98827.81;5071764;28;20278;-60
2022/01/05 03:39:42;;;;;;;12.97;7.43;;;;;;;0.69;86.14;98820.34;5072096;28;20259;-56
2022/01/05 03:42:07;;;;;;;8.47;5.67;;;;;;;0.72;86.30;98825.28;5071679;28;20559;-60
2022/01/05 03:44:34;;;;;;;7.90;6.77;;;;;;;0.71;86.07;98818.38;5071541;28;20039;-58
2022/01/05 03:47:02;;;;;;;7.57;6.03;;;;;;;0.52;86.37;98793.13;5072009;28;20071;-60
2022/01/05 03:49:27;;;;;;;9.07;6.80;;;;;;;0.64;86.41;98813.91;5071914;28;20847;-55
2022/01/05 03:51:53;;;;;;;7.40;5.60;;;;;;;0.62;86.54;98803.56;5071859;28;20313;-62
2022/01/05 03:54:18;;;;;;;8.00;5.83;;;;;;;0.55;86.25;98792.00;5071711;28;20214;-62
2022/01/05 03:56:44;;;;;;;6.57;5.73;;;;;;;0.55;86.25;98797.25;5071644;28;20381;-55
2022/01/05 03:59:10;;;;;;;10.33;6.40;;;;;;;0.46;86.82;98785.84;5071505;28;20415;-58
2022/01/05 04:01:35;;;;;;;7.60;6.30;;;;;;;0.48;86.56;98786.53;5071753;28;20024;-54
2022/01/05 04:04:01;;;;;;;8.13;6.30;;;;;;;0.46;87.33;98793.72;5072105;28;20025;-58
2022/01/05 04:06:26;;;;;;;7.60;6.33;;;;;;;0.48;86.89;98801.44;5071607;28;20033;-56
2022/01/05 04:08:52;;;;;;;9.97;6.07;;;;;;;0.36;87.19;98785.09;5071686;28;20430;-54
2022/01/05 04:11:17;;;;;;;7.30;5.80;;;;;;;0.40;87.53;98786.44;5071475;28;20074;-57
2022/01/05 04:13:44;;;;;;;6.90;5.60;;;;;;;0.42;87.62;98775.81;5071247;28;20477;-56
2022/01/05 04:16:09;;;;;;;7.37;6.20;;;;;;;0.51;87.00;98791.47;5071524;28;20274;-57
2022/01/05 04:18:35;;;;;;;8.17;5.70;;;;;;;0.57;86.84;98788.25;5072096;28;20046;-55
2022/01/05 04:21:00;;;;;;;7.60;5.67;;;;;;;0.61;86.57;98792.25;5071247;28;20036;-60
2022/01/05 04:23:26;;;;;;;6.03;5.40;;;;;;;0.56;86.86;98786.63;5071470;28;20044;-59
2022/01/05 04:25:51;;;;;;;10.17;6.80;;;;;;;0.49;86.77;98782.94;5070008;28;20043;-57
2022/01/05 04:28:17;;;;;;;10.23;7.20;;;;;;;0.46;87.34;98782.41;5071241;28;20190;-58
2022/01/05 04:30:42;;;;;;;7.90;6.53;;;;;;;0.47;87.24;98779.66;5071494;28;20040;-58
2022/01/05 04:33:08;;;;;;;7.63;6.03;;;;;;;0.47;87.19;98778.81;5070808;28;20055;-59
2022/01/05 04:35:33;;;;;;;9.57;6.90;;;;;;;0.52;87.02;98779.19;5071416;28;20075;-60
2022/01/05 04:37:59;;;;;;;7.53;5.73;;;;;;;0.55;87.34;98784.16;5069936;28;20029;-56
2022/01/05 04:40:24;;;;;;;9.53;6.50;;;;;;;0.53;86.90;98767.75;5074881;28;20039;-53
2022/01/05 04:42:50;;;;;;;9.33;7.17;;;;;;;0.56;86.86;98780.56;5074641;28;20039;-57
2022/01/05 04:45:16;;;;;;;9.33;6.93;;;;;;;0.53;87.06;98765.13;5074965;28;20036;-58
2022/01/05 04:47:43;;;;;;;9.93;7.57;;;;;;;0.63;87.15;98776.41;5073727;28;20064;-59
2022/01/05 04:50:14;;;;;;;10.77;7.23;;;;;;;0.64;86.95;98767.56;5074799;28;20041;-56
2022/01/05 04:52:39;;;;;;;9.03;6.97;;;;;;;0.76;87.09;98774.22;5074814;28;20266;-57
2022/01/05 04:55:05;;;;;;;9.63;6.80;;;;;;;0.80;86.86;98764.25;5074622;28;20270;-58
2022/01/05 04:57:31;;;;;;;12.00;7.63;;;;;;;0.81;86.12;98763.28;5074691;28;20036;-56
2022/01/05 04:59:57;;;;;;;14.40;8.73;;;;;;;0.82;86.32;98760.53;5075109;28;20357;-60
2022/01/05 05:02:23;;;;;;;11.20;8.70;;;;;;;0.79;86.30;98754.75;5075071;28;20365;-56
2022/01/05 05:04:48;;;;;;;9.40;7.10;;;;;;;0.80;85.98;98746.75;5074823;28;20047;-57
2022/01/05 05:07:14;;;;;;;12.03;7.77;;;;;;;0.81;85.87;98747.56;5074578;28;20036;-59
2022/01/05 05:09:39;;;;;;;11.30;7.60;;;;;;;0.82;86.01;98742.19;5074104;28;20066;-58
2022/01/05 05:12:05;;;;;;;10.63;7.23;;;;;;;0.85;85.86;98748.91;5074312;28;20033;-60
2022/01/05 05:14:34;;;;;;;14.83;8.53;;;;;;;0.72;85.79;98736.19;5074198;28;20519;-54
2022/01/05 05:17:00;;;;;;;11.10;7.63;;;;;;;0.78;86.10;98758.34;5074674;28;20306;-57
2022/01/05 05:19:25;;;;;;;11.27;9.07;;;;;;;0.66;85.61;98744.66;5074481;28;20036;-60
2022/01/05 05:21:51;;;;;;;8.77;7.23;;;;;;;0.69;86.32;98752.22;5074194;28;20400;-60
2022/01/05 05:24:17;;;;;;;10.07;7.23;;;;;;;0.57;86.49;98735.88;5073925;28;20404;-62
2022/01/05 05:26:43;;;;;;;9.40;7.53;;;;;;;0.62;86.49;98748.56;5074046;28;20273;-62
2022/01/05 05:29:08;;;;;;;12.17;8.10;;;;;;;0.60;86.63;98737.41;5074320;28;20067;-61
2022/01/05 05:31:34;;;;;;;10.83;7.77;;;;;;;0.62;86.99;98738.06;5073887;28;20110;-60
2022/01/05 05:34:00;;;;;;;10.27;7.93;;;;;;;0.68;86.94;98734.84;5074506;28;20050;-62
2022/01/05 05:36:25;;;;;;;11.27;8.07;;;;;;;0.71;86.82;98739.78;5074000;28;20346;-61
2022/01/05 05:38:51;;;;;;;10.73;6.77;;;;;;;0.73;86.66;98748.31;5072561;28;20040;-58
2022/01/05 05:41:16;;;;;;;11.53;8.03;;;;;;;0.65;86.90;98743.00;5073544;28;20040;-58
2022/01/05 05:43:42;;;;;;;10.20;8.53;;;;;;;0.73;87.18;98747.50;5073879;28;20071;-58
2022/01/05 05:46:07;;;;;;;11.63;8.30;;;;;;;0.51;86.82;98707.66;5073708;28;20040;-60
2022/01/05 05:48:33;;;;;;;15.77;7.57;;;;;;;0.72;86.51;98745.84;5074136;28;20067;-59
2022/01/05 05:50:59;;;;;;;8.13;5.80;;;;;;;0.76;86.81;98753.25;5071991;28;20496;-56
2022/01/05 05:53:24;;;;;;;9.67;7.40;;;;;;;0.75;86.17;98751.63;5073520;28;20594;-61
2022/01/05 05:55:50;;;;;;;8.23;6.90;;;;;;;0.61;86.40;98739.88;5073745;28;20129;-59
2022/01/05 05:58:16;;;;;;;11.13;6.80;;;;;;;-0.01;86.71;98649.84;5073684;28;20047;-58
2022/01/05 06:00:41;;;;;;;7.97;6.43;;;;;;;0.63;87.07;98747.56;5073498;28;20174;-58
2022/01/05 06:03:07;;;;;;;11.33;7.50;;;;;;;0.57;87.07;98737.66;5072401;28;20032;-59
2022/01/05 06:05:32;;;;;;;13.87;8.13;;;;;;;0.63;86.92;98742.34;5073369;28;20041;-62
2022/01/05 06:07:58;;;;;;;11.73;8.50;;;;;;;0.66;86.68;98742.03;5073260;28;20090;-57
2022/01/05 06:10:23;;;;;;;11.50;7.97;;;;;;;0.66;87.03;98751.69;5073092;28;20464;-56
2022/01/05 06:12:49;;;;;;;12.17;7.80;;;;;;;0.69;86.99;98736.50;5073296;28;20033;-60
2022/01/05 06:15:15;;;;;;;11.03;7.27;;;;;;;0.60;86.55;98724.31;5073309;28;20380;-56
2022/01/05 06:17:40;;;;;;;10.13;6.40;;;;;;;0.62;86.99;98730.22;5073440;28;20063;-56
2022/01/05 06:20:07;;;;;;;11.20;8.20;;;;;;;0.71;87.23;98742.41;5073250;28;20358;-56
2022/01/05 06:22:33;;;;;;;9.93;6.47;;;;;;;0.66;86.89;98734.19;5073306;28;20456;-56
2022/01/05 06:24:58;;;;;;;9.00;6.60;;;;;;;0.67;86.72;98735.00;5073286;28;20259;-61
2022/01/05 06:27:24;;;;;;;17.00;9.33;;;;;;;0.45;86.66;98723.16;5073443;28;20098;-57
2022/01/05 06:29:49;;;;;;;8.93;6.97;;;;;;;0.55;87.21;98739.63;5073515;28;20553;-58
2022/01/05 06:32:15;;;;;;;10.10;6.33;;;;;;;0.47;87.30;98731.69;5073448;28;20060;-57
2022/01/05 06:34:40;;;;;;;7.93;6.23;;;;;;;0.58;87.50;98747.22;5073690;28;20032;-58
2022/01/05 06:37:06;;;;;;;7.93;6.33;;;;;;;0.65;87.29;98740.41;5074160;28;20094;-56
2022/01/05 06:39:31;;;;;;;12.00;7.50;;;;;;;0.57;86.88;98716.72;5074112;28;20570;-61
2022/01/05 06:41:57;;;;;;;9.07;6.57;;;;;;;0.59;86.62;98728.72;5073093;28;20078;-59
2022/01/05 06:44:23;;;;;;;11.23;6.73;;;;;;;0.49;86.83;98714.03;5072680;28;20494;-61
2022/01/05 06:46:48;;;;;;;10.23;6.57;;;;;;;0.50;86.75;98723.53;5073517;28;20097;-55
2022/01/05 06:49:14;;;;;;;10.97;7.23;;;;;;;0.53;86.92;98731.09;5072953;28;20049;-57
2022/01/05 06:51:39;;;;;;;11.47;7.20;;;;;;;0.45;87.06;98712.69;5072480;28;20074;-56
2022/01/05 06:54:05;;;;;;;8.13;6.23;;;;;;;0.50;87.70;98719.13;5072468;28;20028;-59
2022/01/05 06:56:30;;;;;;;7.03;5.73;;;;;;;0.57;87.12;98721.94;5071350;28;20481;-52
2022/01/05 06:58:56;;;;;;;7.23;4.77;;;;;;;0.54;86.96;98724.88;5072391;28;20051;-57
2022/01/05 07:01:21;;;;;;;15.37;6.93;;;;;;;0.57;86.89;98720.16;5071617;28;20032;-62
2022/01/05 07:03:47;;;;;;;11.90;5.73;;;;;;;0.41;87.07;98700.84;5071101;28;20048;-61
2022/01/05 07:06:12;;;;;;;6.50;4.93;;;;;;;0.56;87.40;98715.06;5072478;28;20047;-60
2022/01/05 07:08:38;;;;;;;8.47;6.47;;;;;;;0.68;87.54;98719.13;5072673;28;20060;-55
2022/01/05 07:11:03;;;;;;;8.30;6.13;;;;;;;0.70;87.17;98717.19;5072253;28;20552;-56
2022/01/05 07:13:28;;;;;;;8.70;6.50;;;;;;;0.74;86.93;98722.94;5071365;28;20403;-57
2022/01/05 07:15:59;;;;;;;9.37;7.33;;;;;;;0.63;87.22;98703.03;5071019;28;20040;-59
2022/01/05 07:18:25;;;;;;;10.90;7.73;;;;;;;0.79;87.03;98726.75;5072513;28;20653;-58
2022/01/05 07:20:50;;;;;;;10.03;7.57;;;;;;;0.78;87.18;98709.38;5072368;28;20039;-61
2022/01/05 07:23:16;;;;;;;10.47;7.70;;;;;;;0.79;87.16;98704.97;5073114;28;20092;-58
2022/01/05 07:25:41;;;;;;;13.57;8.73;;;;;;;0.93;87.18;98728.03;5072621;28;20032;-56
2022/01/05 07:28:09;;;;;;;15.70;8.77;;;;;;;0.84;86.77;98706.16;5073173;28;20039;-59
2022/01/05 07:30:34;;;;;;;17.03;10.83;;;;;;;0.95;86.71;98726.09;5072266;28;20542;-60
2022/01/05 07:33:00;;;;;;;16.30;10.33;;;;;;;0.95;86.65;98725.28;5075059;28;20271;-60
2022/01/05 07:35:25;;;;;;;14.27;10.33;;;;;;;0.89;87.12;98703.94;5072050;28;20040;-60
2022/01/05 07:37:51;;;;;;;14.83;9.53;;;;;;;0.87;87.07;98703.28;5071094;28;20115;-63
2022/01/05 07:40:16;;;;;;;14.53;10.40;;;;;;;0.96;87.16;98713.81;5071203;28;20081;-61
2022/01/05 07:42:42;;;;;;;16.73;9.73;;;;;;;1.02;86.98;98713.19;5071059;28;20498;-58
2022/01/05 07:45:09;;;;;;;17.07;10.53;;;;;;;1.09;87.00;98716.84;5071199;28;20415;-61
2022/01/05 07:47:36;;;;;;;16.93;10.40;;;;;;;1.10;86.70;98705.38;5070836;28;20064;-57
2022/01/05 07:50:04;;;;;;;15.20;8.93;;;;;;;1.21;86.43;98720.88;5073121;28;20348;-57
2022/01/05 07:52:30;;;;;;;19.93;11.03;;;;;;;1.18;86.37;98715.97;5072001;28;20266;-61
2022/01/05 07:54:55;;;;;;;13.97;8.97;;;;;;;1.16;86.62;98710.03;5073446;28;20324;-57
2022/01/05 07:57:21;;;;;;;14.63;8.90;;;;;;;1.12;86.69;98706.06;5075341;28;20072;-57
2022/01/05 07:59:46;;;;;;;15.43;10.00;;;;;;;1.15;86.71;98706.56;5074368;28;20033;-58
2022/01/05 08:02:12;;;;;;;16.13;8.60;;;;;;;1.10;86.36;98697.53;5072380;28;20041;-60
2022/01/05 08:04:38;;;;;;;12.43;8.53;;;;;;;1.24;86.78;98710.09;5072720;28;20529;-59
2022/01/05 08:07:03;;;;;;;16.40;10.67;;;;;;;1.22;86.78;98698.94;5072116;28;20032;-58
2022/01/05 08:09:30;;;;;;;15.87;8.47;;;;;;;1.27;86.61;98704.53;5072355;28;20395;-58
2022/01/05 08:11:57;;;;;;;13.57;8.53;;;;;;;1.30;86.53;98706.84;5072848;28;20046;-57
2022/01/05 08:14:23;;;;;;;25.90;11.57;;;;;;;1.33;86.36;98698.66;5109258;28;20271;-55
2022/01/05 08:16:48;;;;;;;16.70;11.83;;;;;;;1.04;86.29;98662.25;5041356;28;20302;-59
2022/01/05 08:19:14;;;;;;;20.90;14.53;;;;;;;1.28;86.48;98700.13;5077079;28;20028;-56
2022/01/05 08:21:40;;;;;;;23.43;14.40;;;;;;;1.31;86.54;98705.06;5077793;28;20036;-58
2022/01/05 08:24:06;;;;;;;18.47;12.33;;;;;;;1.33;86.31;98698.66;5074907;28;20186;-60
2022/01/05 08:26:31;;;;;;;19.77;12.87;;;;;;;1.20;86.32;98680.75;5077295;28;20089;-59
2022/01/05 08:28:57;;;;;;;20.27;11.53;;;;;;;1.33;86.31;98698.66;5076360;28;20745;-57
2022/01/05 08:31:25;;;;;;;33.63;18.47;;;;;;;1.35;86.05;98688.84;5075641;28;20040;-54
2022/01/05 08:33:51;;;;;;;20.83;10.95;;;;;;;1.25;86.33;98669.78;5077097;28;20037;-57
2022/01/05 08:36:19;;;;;;;16.60;10.47;;;;;;;1.40;85.98;98694.44;5075435;28;20454;-54
2022/01/05 08:38:45;;;;;;;19.83;9.70;;;;;;;1.38;86.28;98678.03;5077471;28;20028;-54
2022/01/05 08:41:11;;;;;;;20.17;11.17;;;;;;;1.39;85.96;98677.06;5077441;28;20040;-57
2022/01/05 08:43:36;;;;;;;19.27;11.47;;;;;;;1.44;86.04;98680.03;5076614;28;20047;-62
2022/01/05 08:46:02;;;;;;;20.20;11.27;;;;;;;1.19;86.11;98639.75;5076019;28;20092;-57
2022/01/05 08:48:29;;;;;;;23.70;13.00;;;;;;;1.30;86.46;98662.28;5076300;28;20049;-59
2022/01/05 08:50:55;;;;;;;22.43;13.20;;;;;;;1.29;86.73;98676.34;5076148;28;20098;-62
2022/01/05 08:53:21;;;;;;;23.03;12.50;;;;;;;1.22;86.86;98665.66;5076797;28;20258;-60
2022/01/05 08:55:49;;;;;;;23.97;13.03;;;;;;;1.26;86.80;98671.44;5075977;28;20126;-60
2022/01/05 08:58:17;;;;;;;20.37;13.80;;;;;;;1.34;87.05;98673.28;5077017;28;20408;-57
2022/01/05 09:00:43;;;;;;;27.83;14.00;;;;;;;1.26;86.88;98660.94;5076077;28;20306;-58
2022/01/05 09:03:09;;;;;;;27.67;14.27;;;;;;;1.26;87.32;98662.75;5077158;28;20036;-57
2022/01/05 09:05:35;;;;;;;27.60;14.40;;;;;;;1.23;87.31;98676.97;5075554;28;20079;-58
2022/01/05 09:08:02;;;;;;;29.40;15.27;;;;;;;1.20;87.77;98669.44;5075217;28;20274;-56
2022/01/05 09:10:28;;;;;;;33.03;16.60;;;;;;;1.26;87.73;98666.19;5075420;28;20309;-62
2022/01/05 09:12:56;;;;;;;36.20;17.07;;;;;;;1.20;87.94;98654.53;5075241;28;20424;-54
2022/01/05 09:15:22;;;;;;;32.40;14.80;;;;;;;1.27;87.84;98649.47;5076562;28;20262;-58
2022/01/05 09:18:15;;;;;;;28.60;14.63;;;;;;;1.37;87.59;98665.09;5076524;28;20300;-59
2022/01/05 09:20:41;;;;;;;34.70;15.80;;;;;;;1.31;87.64;98652.59;5075216;28;20765;-63
2022/01/05 09:23:07;;;;;;;28.50;15.80;;;;;;;1.27;88.15;98652.09;5076116;28;20043;-56
2022/01/05 09:25:33;;;;;;;26.97;14.97;;;;;;;1.33;87.81;98661.97;5074834;28;20040;-55
2022/01/05 09:27:59;;;;;;;26.97;13.53;;;;;;;1.30;87.88;98654.41;5075166;28;20032;-58
2022/01/05 09:30:26;;;;;;;28.93;14.80;;;;;;;1.40;87.79;98659.53;5075514;28;20047;-57
2022/01/05 09:32:52;;;;;;;27.50;14.37;;;;;;;1.27;86.99;98652.09;5075717;28;20040;-61
2022/01/05 09:35:21;;;;;;;29.27;14.70;;;;;;;1.31;87.87;98658.66;5074518;28;20263;-58
2022/01/05 09:38:09;;;;;;;32.55;16.05;;;;;;;1.36;87.84;98666.88;5073922;28;20059;-58
2022/01/05 09:43:21;;;;;;;24.07;14.23;;;;;;;1.38;87.17;98651.81;5074278;28;20036;-60
2022/01/05 09:46:15;;;;;;;22.23;12.80;;;;;;;1.46;87.43;98662.38;5073965;28;20269;-58
2022/01/05 09:49:02;;;;;;;28.57;15.70;;;;;;;1.46;87.20;98653.69;5074259;28;20319;-57
2022/01/05 09:51:31;;;;;;;24.80;15.53;;;;;;;1.45;87.18;98663.34;5073662;28;20310;-61
2022/01/05 09:53:59;;;;;;;;;;;;;;;1.49;87.03;98659.44;5072563;28;20267;-60
2022/01/05 09:56:25;;;;;;;26.00;14.88;;;;;;;1.46;87.29;98657.13;5073648;28;19916;-58
2022/01/05 09:58:52;;;;;;;27.33;15.63;;;;;;;1.33;87.47;98640.97;5073805;28;20051;-62
2022/01/05 10:01:18;;;;;;;28.10;16.83;;;;;;;1.37;87.45;98642.31;5073646;28;20055;-61
2022/01/05 10:03:43;;;;;;;32.00;16.77;;;;;;;1.43;87.38;98651.34;5074111;28;20258;-56
2022/01/05 10:06:12;;;;;;;27.50;17.03;;;;;;;1.36;87.30;98642.47;5073663;28;20750;-59
2022/01/05 10:08:37;;;;;;;28.52;16.08;;;;;;;1.43;87.62;98652.16;5073719;28;20032;-57
2022/01/05 10:11:03;;;;;;;30.97;14.67;;;;;;;1.43;87.24;98652.16;5106183;28;20499;-59
2022/01/05 10:13:28;;;;;;;27.40;14.90;;;;;;;1.39;87.17;98639.53;5074438;28;20036;-61
2022/01/05 10:15:55;;;;;;;26.87;15.93;;;;;;;1.40;87.37;98642.00;5073470;28;20105;-63
2022/01/05 10:18:46;;;;;;;32.83;15.73;;;;;;;1.45;87.64;98644.16;5074044;28;20451;-52
2022/01/05 10:21:14;;;;;;;28.63;15.70;;;;;;;1.47;87.19;98637.78;5073574;28;20268;-60
2022/01/05 10:23:42;;;;;;;28.08;16.42;;;;;;;1.52;87.30;98643.38;5073488;28;20452;-58
2022/01/05 10:26:34;;;;;;;32.00;16.30;;;;;;;1.46;86.82;98630.91;5073376;28;20068;-58
2022/01/05 10:29:14;;;;;;;28.47;14.90;;;;;;;1.50;87.07;98641.91;5073522;28;20075;-60
2022/01/05 10:31:41;;;;;;;30.33;15.87;;;;;;;1.44;87.40;98632.81;5073277;28;20406;-57
2022/01/05 10:34:20;;;;;;;27.00;15.83;;;;;;;1.46;87.74;98638.78;5073682;28;20354;-61
2022/01/05 10:36:50;;;;;;;32.47;17.73;;;;;;;1.39;87.82;98627.22;5071838;28;20266;-55
2022/01/05 10:39:20;;;;;;;27.40;17.23;;;;;;;1.38;87.82;98632.63;5073083;28;20277;-60
2022/01/05 10:41:46;;;;;;;27.93;15.67;;;;;;;1.30;87.56;98622.94;5073669;28;20263;-57
2022/01/05 10:44:24;;;;;;;27.70;15.97;;;;;;;1.29;87.95;98626.53;5073480;28;20267;-58
2022/01/05 10:46:53;;;;;;;20.65;14.38;;;;;;;1.34;87.77;98632.13;5072701;28;20287;-56
2022/01/05 10:49:40;;;;;;;28.73;15.37;;;;;;;1.32;87.29;98623.59;5072129;28;20062;-61
2022/01/05 10:52:20;;;;;;;21.30;13.17;;;;;;;1.31;87.94;98629.81;5071692;28;20279;-59
2022/01/05 10:54:46;;;;;;;26.13;15.33;;;;;;;1.27;87.68;98620.63;5073046;28;20370;-57
2022/01/05 10:57:13;;;;;;;24.83;15.33;;;;;;;1.25;87.04;98619.97;5071379;28;20831;-61
2022/01/05 10:59:42;;;;;;;24.33;14.30;;;;;;;1.30;87.61;98619.50;5070865;28;20036;-57
2022/01/05 11:02:27;;;;;;;23.50;13.47;;;;;;;1.38;87.41;98622.97;5072469;28;20317;-60
2022/01/05 11:04:55;;;;;;;29.77;15.03;;;;;;;1.37;87.63;98623.13;5073196;28;20287;-63
2022/01/05 11:07:23;;;;;;;22.13;12.95;;;;;;;1.29;87.35;98610.81;5071058;28;20305;-58
2022/01/05 11:09:58;;;;;;;22.63;14.73;;;;;;;1.34;88.09;98610.34;5072659;28;20036;-60
2022/01/05 11:12:41;;;;;;;26.77;13.93;;;;;;;1.36;87.33;98608.38;5072106;28;20286;-55
2022/01/05 11:15:27;;;;;;;24.90;13.50;;;;;;;1.34;87.61;98605.91;5072387;28;20332;-58
2022/01/05 11:18:18;;;;;;;21.80;14.40;;;;;;;1.39;87.46;98606.25;5072715;28;20266;-57
2022/01/05 11:21:13;;;;;;;23.87;12.97;;;;;;;1.41;87.80;98606.91;5072540;28;20297;-61
2022/01/05 11:23:39;;;;;;;22.37;12.50;;;;;;;1.36;87.21;98603.13;5054006;28;20287;-58
2022/01/05 11:26:06;;;;;;;30.63;18.00;;;;;;;1.32;87.50;98599.19;5072190;28;20777;-56
2022/01/05 11:28:32;;;;;;;24.73;14.90;;;;;;;1.24;87.26;98594.72;5071090;28;20036;-60
2022/01/05 11:30:58;;;;;;;25.30;13.93;;;;;;;1.31;87.60;98595.72;5071915;28;20298;-57
2022/01/05 11:33:24;;;;;;;24.30;13.47;;;;;;;1.36;87.41;98597.88;5072643;28;20480;-61
2022/01/05 11:35:50;;;;;;;23.83;12.83;;;;;;;1.33;87.54;98591.16;5072162;28;20305;-56